createdAt,value
2022-08-14T00:01:40.589Z,101172.44
2022-08-14T00:04:45.887Z,101164.69
2022-08-14T00:07:51.424Z,101163.25
2022-08-14T00:11:02.669Z,101149.63
2022-08-14T00:14:12.064Z,101140.31
2022-08-14T00:17:22.781Z,101147.66
2022-08-14T00:20:35.965Z,101145.13
2022-08-14T00:23:54.042Z,101144.66
2022-08-14T00:27:02.079Z,101134.97
2022-08-14T00:30:10.758Z,101126.25
2022-08-14T00:33:16.878Z,101128.53
2022-08-14T00:36:37.319Z,101121.38
2022-08-14T00:39:44.685Z,101124.13
2022-08-14T00:42:56.351Z,101113.31
2022-08-14T00:46:05.240Z,101113.78
2022-08-14T00:49:14.628Z,101108.91
2022-08-14T00:52:21.490Z,101110.22
2022-08-14T00:55:30.258Z,101098.28
2022-08-14T00:58:38.963Z,101101.53
2022-08-14T01:01:50.645Z,101107.44
2022-08-14T01:05:00.787Z,101109.91
2022-08-14T01:08:06.968Z,101103.25
2022-08-14T01:11:36.262Z,101094.19
2022-08-14T01:14:42.995Z,101091.91
2022-08-14T01:18:05.697Z,101094.41
2022-08-14T01:21:12.720Z,101077.78
2022-08-14T01:24:28.812Z,101076.84
2022-08-14T01:27:53.951Z,101067.38
2022-08-14T01:31:05.917Z,101067.81
2022-08-14T01:35:19.130Z,101063.03
2022-08-14T01:37:39.170Z,101058.50
2022-08-14T01:40:51.919Z,101060.53
2022-08-14T01:44:01.587Z,101057.97
2022-08-14T01:47:21.665Z,101053.91
2022-08-14T01:50:27.811Z,101056.75
2022-08-14T01:53:35.916Z,101054.56
2022-08-14T01:56:44.741Z,101052.53
2022-08-14T01:59:50.241Z,101046.13
2022-08-14T02:02:58.158Z,101045.88
2022-08-14T02:06:32.336Z,101040.75
2022-08-14T02:09:31.988Z,101037.78
2022-08-14T02:12:38.813Z,101047.47
2022-08-14T02:15:45.708Z,101040.91
2022-08-14T02:18:55.587Z,101038.09
2022-08-14T02:22:03.334Z,101039.44
2022-08-14T02:25:09.341Z,101036.69
2022-08-14T02:28:24.096Z,101046.47
2022-08-14T02:31:44.102Z,101045.16
2022-08-14T02:34:49.315Z,101042.16
2022-08-14T02:37:54.495Z,101039.91
2022-08-14T02:40:59.350Z,101041.44
2022-08-14T02:44:07.526Z,101044.53
2022-08-14T02:47:14.957Z,101043.00
2022-08-14T02:50:27.073Z,101034.16
2022-08-14T02:53:33.277Z,101038.56
2022-08-14T02:57:15.890Z,101034.03
2022-08-14T03:00:09.929Z,101029.72
2022-08-14T03:03:16.901Z,101030.44
2022-08-14T03:06:48.806Z,101023.63
2022-08-14T03:10:25.565Z,101022.28
2022-08-14T03:13:20.937Z,101027.28
2022-08-14T03:16:36.254Z,101025.97
2022-08-14T03:19:44.338Z,101027.34
2022-08-14T03:22:50.845Z,101017.22
2022-08-14T03:25:56.426Z,101021.84
2022-08-14T03:29:02.183Z,101020.44
2022-08-14T03:32:08.742Z,101016.88
2022-08-14T03:35:13.982Z,101016.06
2022-08-14T03:39:13.080Z,101009.00
2022-08-14T03:41:45.716Z,101012.13
2022-08-14T03:45:20.113Z,101004.72
2022-08-14T03:48:30.520Z,101001.94
2022-08-14T03:51:44.076Z,101011.78
2022-08-14T03:54:52.460Z,101003.91
2022-08-14T03:57:58.083Z,101001.50
2022-08-14T04:01:06.635Z,101008.13
2022-08-14T04:04:13.346Z,101000.03
2022-08-14T04:07:18.854Z,101001.75
2022-08-14T04:10:31.709Z,101005.22
2022-08-14T04:13:41.074Z,101003.28
2022-08-14T04:16:47.352Z,100997.28
2022-08-14T04:19:54.127Z,100993.47
2022-08-14T04:22:59.805Z,100992.63
2022-08-14T04:26:15.056Z,100993.47
2022-08-14T04:29:32.878Z,100988.81
2022-08-14T04:33:00.249Z,100988.44
2022-08-14T04:36:06.116Z,100989.53
2022-08-14T04:39:47.032Z,100997.22
2022-08-14T04:43:19.188Z,100988.63
2022-08-14T04:46:55.838Z,100991.38
2022-08-14T04:49:56.889Z,100984.84
2022-08-14T04:53:04.556Z,100976.91
2022-08-14T04:56:31.302Z,100983.31
2022-08-14T04:59:37.109Z,100989.16
2022-08-14T05:02:48.294Z,100986.31
2022-08-14T05:05:57.119Z,100988.50
2022-08-14T05:09:04.496Z,100973.41
2022-08-14T05:13:11.737Z,100972.69
2022-08-14T05:15:39.455Z,100964.38
2022-08-14T05:19:18.524Z,100963.69
2022-08-14T05:22:16.624Z,100959.88
2022-08-14T05:25:24.993Z,100955.13
2022-08-14T05:28:37.209Z,100959.56
2022-08-14T05:31:42.324Z,100957.41
2022-08-14T05:34:47.276Z,100964.75
2022-08-14T05:37:52.930Z,100959.03
2022-08-14T05:41:00.454Z,100959.47
2022-08-14T05:44:06.424Z,100950.50
2022-08-14T05:47:11.940Z,100947.25
2022-08-14T05:50:19.322Z,100944.84
2022-08-14T05:53:27.074Z,100944.94
2022-08-14T05:56:34.029Z,100939.00
2022-08-14T05:59:42.814Z,100948.19
2022-08-14T06:02:48.185Z,100950.88
2022-08-14T06:05:55.712Z,100948.09
2022-08-14T06:09:01.583Z,100937.88
2022-08-14T06:12:09.525Z,100938.56
2022-08-14T06:15:14.876Z,100938.78
2022-08-14T06:18:20.291Z,100939.97
2022-08-14T06:21:30.289Z,100940.16
2022-08-14T06:24:37.923Z,100938.94
2022-08-14T06:27:51.314Z,100939.38
2022-08-14T06:30:57.167Z,100942.97
2022-08-14T06:35:11.406Z,100944.19
2022-08-14T06:37:28.568Z,100944.66
2022-08-14T06:40:35.790Z,100942.81
2022-08-14T06:43:45.241Z,100937.78
2022-08-14T06:46:50.931Z,100937.00
2022-08-14T06:49:58.193Z,100938.13
2022-08-14T06:53:03.532Z,100938.31
2022-08-14T06:56:10.676Z,100929.19
2022-08-14T06:59:19.894Z,100930.88
2022-08-14T07:02:43.469Z,100925.88
2022-08-14T07:05:55.727Z,100919.25
2022-08-14T07:09:04.841Z,100914.50
2022-08-14T07:12:10.202Z,100920.88
2022-08-14T07:15:39.496Z,100925.28
2022-08-14T07:18:45.650Z,100921.41
2022-08-14T07:21:56.672Z,100918.38
2022-08-14T07:25:02.271Z,100905.53
2022-08-14T07:28:12.744Z,100912.78
2022-08-14T07:31:19.987Z,100905.50
2022-08-14T07:34:36.665Z,100906.56
2022-08-14T07:37:49.097Z,100906.66
2022-08-14T07:40:59.593Z,100905.69
2022-08-14T07:44:29.260Z,100902.94
2022-08-14T07:47:31.355Z,100898.16
2022-08-14T07:50:39.341Z,100898.31
2022-08-14T07:53:45.690Z,100903.13
2022-08-14T07:56:56.572Z,100904.19
2022-08-14T08:00:01.976Z,100900.47
2022-08-14T08:03:19.465Z,100894.84
2022-08-14T08:06:29.440Z,100895.63
2022-08-14T08:09:37.238Z,100892.22
2022-08-14T08:12:43.394Z,100884.50
2022-08-14T08:15:51.179Z,100892.00
2022-08-14T08:19:01.750Z,100889.22
2022-08-14T08:22:10.439Z,100882.53
2022-08-14T08:25:18.200Z,100884.00
2022-08-14T08:28:26.538Z,100878.78
2022-08-14T08:31:32.841Z,100883.53
2022-08-14T08:34:46.564Z,100880.78
2022-08-14T08:38:01.253Z,100875.19
2022-08-14T08:41:09.614Z,100874.13
2022-08-14T08:44:17.231Z,100887.88
2022-08-14T08:47:40.795Z,100884.88
2022-08-14T08:50:47.458Z,100885.00
2022-08-14T08:53:58.528Z,100888.28
2022-08-14T08:57:04.069Z,100878.91
2022-08-14T09:00:24.920Z,100877.94
2022-08-14T09:03:32.192Z,100868.06
2022-08-14T09:07:00.015Z,100870.44
2022-08-14T09:10:11.122Z,100872.28
2022-08-14T09:13:25.547Z,100866.56
2022-08-14T09:16:30.917Z,100861.69
2022-08-14T09:19:38.215Z,100860.31
2022-08-14T09:22:49.579Z,100859.38
2022-08-14T09:26:01.477Z,100847.31
2022-08-14T09:29:07.746Z,100841.22
2022-08-14T09:32:58.909Z,100841.59
2022-08-14T09:36:01.631Z,100840.41
2022-08-14T09:39:23.270Z,100841.06
2022-08-14T09:42:51.348Z,100831.34
2022-08-14T09:46:01.055Z,100827.50
2022-08-14T09:49:11.996Z,100824.97
2022-08-14T09:52:34.123Z,100815.47
2022-08-14T09:55:41.861Z,100820.25
2022-08-14T09:58:48.496Z,100820.28
2022-08-14T10:01:55.421Z,100807.09
2022-08-14T10:05:03.297Z,100798.84
2022-08-14T10:08:25.300Z,100791.78
2022-08-14T10:11:35.945Z,100784.84
2022-08-14T10:14:41.358Z,100783.88
2022-08-14T10:17:48.934Z,100789.25
2022-08-14T10:20:57.721Z,100780.75
2022-08-14T10:24:06.799Z,100781.25
2022-08-14T10:27:19.230Z,100784.69
2022-08-14T10:44:39.568Z,100758.66
2022-08-14T10:48:07.558Z,100752.41
2022-08-14T10:51:10.483Z,100753.78
2022-08-14T10:54:26.106Z,100755.97
2022-08-14T10:57:50.022Z,100736.84
2022-08-14T11:01:00.645Z,100743.97
2022-08-14T11:04:06.801Z,100741.53
2022-08-14T11:07:21.069Z,100743.09
2022-08-14T11:13:38.197Z,100733.88
2022-08-14T11:16:53.285Z,100732.69
2022-08-14T11:20:01.460Z,100727.84
2022-08-14T11:23:09.710Z,100729.69
2022-08-14T11:26:08.347Z,100727.69
2022-08-14T11:29:14.033Z,100726.75
2022-08-14T11:32:27.373Z,100720.94
2022-08-14T11:35:43.823Z,100721.09
2022-08-14T11:42:55.259Z,100717.97
2022-08-14T11:45:34.325Z,100732.28
2022-08-14T11:49:04.126Z,100725.44
2022-08-14T11:52:12.764Z,100720.47
2022-08-14T11:55:25.074Z,100721.69
2022-08-14T11:58:33.316Z,100712.56
2022-08-14T12:01:41.208Z,100703.75
2022-08-14T12:04:52.359Z,100700.56
2022-08-14T12:08:01.841Z,100691.22
2022-08-14T12:11:14.421Z,100695.94
2022-08-14T12:14:29.974Z,100685.38
2022-08-14T12:17:47.612Z,100668.84
2022-08-14T12:21:00.018Z,100670.66
2022-08-14T12:24:08.452Z,100670.97
2022-08-14T12:27:16.931Z,100661.84
2022-08-14T12:30:29.430Z,100651.34
2022-08-14T12:33:47.104Z,100648.06
2022-08-14T12:37:06.066Z,100639.38
2022-08-14T12:40:13.814Z,100644.03
2022-08-14T12:43:22.712Z,100628.56
2022-08-14T12:46:30.520Z,100626.22
2022-08-14T12:49:36.617Z,100628.78
2022-08-14T12:53:02.291Z,100621.41
2022-08-14T12:56:21.867Z,100624.09
2022-08-14T12:59:42.595Z,100617.31
2022-08-14T13:02:54.851Z,100613.38
2022-08-14T13:06:01.573Z,100606.31
2022-08-14T13:09:11.512Z,100610.81
2022-08-14T13:12:31.782Z,100610.75
2022-08-14T13:15:41.572Z,100607.97
2022-08-14T13:18:58.436Z,100606.31
2022-08-14T13:22:10.039Z,100606.25
2022-08-14T13:25:28.192Z,100598.81
2022-08-14T13:28:39.708Z,100596.66
2022-08-14T13:32:01.033Z,100581.84
2022-08-14T13:35:12.066Z,100593.50
2022-08-14T13:38:22.862Z,100580.78
2022-08-14T13:41:34.528Z,100572.38
2022-08-14T13:44:43.382Z,100577.78
2022-08-14T13:47:52.359Z,100574.88
2022-08-14T13:50:59.489Z,100567.63
2022-08-14T13:54:10.190Z,100568.13
2022-08-14T13:57:19.671Z,100571.06
2022-08-14T14:00:32.779Z,100561.22
2022-08-14T14:03:46.560Z,100560.38
2022-08-14T14:06:52.899Z,100557.81
2022-08-14T14:10:03.045Z,100564.22
2022-08-14T14:13:16.349Z,100556.94
2022-08-14T14:16:30.178Z,100549.91
2022-08-14T14:19:36.482Z,100552.00
2022-08-14T14:23:01.594Z,100543.41
2022-08-14T14:26:14.115Z,100540.97
2022-08-14T14:29:25.937Z,100546.09
2022-08-14T14:32:32.666Z,100539.53
2022-08-14T14:35:39.797Z,100540.28
2022-08-14T14:38:48.251Z,100541.66
2022-08-14T14:41:59.507Z,100530.44
2022-08-14T14:45:15.516Z,100531.50
2022-08-14T14:48:21.673Z,100524.00
2022-08-14T14:51:34.063Z,100527.34
2022-08-14T14:54:40.127Z,100524.06
2022-08-14T14:57:52.123Z,100516.47
2022-08-14T15:01:08.488Z,100517.00
2022-08-14T15:04:20.578Z,100505.41
2022-08-14T15:07:26.307Z,100510.00
2022-08-14T15:10:39.875Z,100508.59
2022-08-14T15:13:52.985Z,100506.13
2022-08-14T15:17:00.425Z,100499.25
2022-08-14T15:20:09.718Z,100503.81
2022-08-14T15:23:23.110Z,100493.28
2022-08-14T15:26:32.063Z,100498.13
2022-08-14T15:29:43.180Z,100487.59
2022-08-14T15:32:50.213Z,100487.19
2022-08-14T15:35:55.878Z,100485.38
2022-08-14T15:39:05.757Z,100484.13
2022-08-14T15:42:14.468Z,100484.78
2022-08-14T15:45:22.774Z,100489.91
2022-08-14T15:48:31.522Z,100484.41
2022-08-14T15:51:42.417Z,100482.50
2022-08-14T15:54:49.624Z,100482.06
2022-08-14T15:58:02.380Z,100477.09
2022-08-14T16:01:43.628Z,100478.91
2022-08-14T16:04:22.655Z,100471.88
2022-08-14T16:10:41.064Z,100474.34
2022-08-14T16:13:49.814Z,100469.66
2022-08-14T16:17:00.742Z,100467.53
2022-08-14T16:20:11.902Z,100465.75
2022-08-14T16:23:18.187Z,100467.06
2022-08-14T16:26:29.368Z,100459.41
2022-08-14T16:29:40.756Z,100460.69
2022-08-14T16:32:55.957Z,100448.31
2022-08-14T16:36:29.862Z,100451.66
2022-08-14T16:39:32.907Z,100458.81
2022-08-14T16:43:03.961Z,100446.47
2022-08-14T16:46:09.555Z,100436.19
2022-08-14T16:49:17.601Z,100435.72
2022-08-14T16:52:43.943Z,100437.44
2022-08-14T16:56:17.342Z,100429.94
2022-08-14T16:59:30.292Z,100419.91
2022-08-14T17:02:42.552Z,100420.00
2022-08-14T17:05:47.984Z,100420.13
2022-08-14T17:08:57.466Z,100423.25
2022-08-14T17:12:09.306Z,100426.03
2022-08-14T17:15:35.484Z,100415.28
2022-08-14T17:19:00.309Z,100409.75
2022-08-14T17:22:07.382Z,100415.63
2022-08-14T17:28:51.417Z,100405.13
2022-08-14T17:32:02.188Z,100409.69
2022-08-14T17:35:10.121Z,100406.59
2022-08-14T17:38:38.772Z,100401.78
2022-08-14T17:41:47.721Z,100399.56
2022-08-14T17:45:07.790Z,100406.22
2022-08-14T17:49:10.515Z,100402.13
2022-08-14T17:52:07.859Z,100403.13
2022-08-14T17:56:01.252Z,100409.38
2022-08-14T17:58:50.820Z,100397.09
2022-08-14T18:02:00.395Z,100399.38
2022-08-14T18:05:08.349Z,100392.50
2022-08-14T18:08:33.301Z,100399.53
2022-08-14T18:11:45.902Z,100400.84
2022-08-14T18:14:54.099Z,100400.34
2022-08-14T18:18:04.696Z,100395.56
2022-08-14T18:21:40.516Z,100400.94
2022-08-14T18:24:39.357Z,100407.63
2022-08-14T18:27:48.939Z,100399.22
2022-08-14T18:31:41.906Z,100401.25
2022-08-14T18:34:52.922Z,100397.94
2022-08-14T18:38:25.463Z,100398.03
2022-08-14T18:41:36.967Z,100389.91
2022-08-14T18:45:12.940Z,100400.00
2022-08-14T18:48:33.470Z,100399.38
2022-08-14T18:52:13.525Z,100395.97
2022-08-14T18:55:52.767Z,100401.25
2022-08-14T18:58:59.630Z,100405.53
2022-08-14T19:02:43.320Z,100397.22
2022-08-14T19:06:02.540Z,100402.19
2022-08-14T19:09:50.356Z,100406.28
2022-08-14T19:12:58.460Z,100416.63
2022-08-14T19:16:07.900Z,100410.66
2022-08-14T19:19:18.890Z,100402.88
2022-08-14T19:22:33.360Z,100408.13
2022-08-14T19:26:00.099Z,100410.19
2022-08-14T19:29:23.978Z,100401.94
2022-08-14T19:32:40.634Z,100402.69
2022-08-14T19:35:49.845Z,100398.56
2022-08-14T19:39:04.381Z,100399.69
2022-08-14T19:42:12.874Z,100397.56
2022-08-14T19:45:18.843Z,100400.44
2022-08-14T19:48:24.947Z,100404.22
2022-08-14T19:51:32.817Z,100401.72
2022-08-14T19:54:43.621Z,100408.06
2022-08-14T19:57:58.757Z,100399.19
2022-08-14T20:01:08.508Z,100393.84
2022-08-14T20:04:46.261Z,100398.13
2022-08-14T20:08:00.503Z,100404.06
2022-08-14T20:12:00.309Z,100404.16
2022-08-14T20:14:53.101Z,100410.13
2022-08-14T20:17:58.784Z,100396.19
2022-08-14T20:21:05.025Z,100397.53
2022-08-14T20:24:31.243Z,100400.69
2022-08-14T20:27:40.106Z,100396.63
2022-08-14T20:30:47.388Z,100393.09
2022-08-14T20:34:03.620Z,100398.44
2022-08-14T20:37:16.406Z,100395.22
2022-08-14T20:40:28.431Z,100384.50
2022-08-14T20:43:55.707Z,100387.25
2022-08-14T20:47:03.711Z,100398.44
2022-08-14T20:50:20.264Z,100384.78
2022-08-14T20:53:33.699Z,100385.97
2022-08-14T20:56:42.706Z,100386.63
2022-08-14T20:59:53.430Z,100386.72
2022-08-14T21:03:28.907Z,100383.72
2022-08-14T21:07:23.360Z,100383.47
2022-08-14T21:10:33.681Z,100381.03
2022-08-14T21:14:20.564Z,100384.69
2022-08-14T21:17:04.169Z,100380.63
2022-08-14T21:20:26.147Z,100378.78
2022-08-14T21:23:37.211Z,100375.31
2022-08-14T21:27:12.115Z,100372.66
2022-08-14T21:30:21.169Z,100371.63
2022-08-14T21:33:44.932Z,100370.78
2022-08-14T21:36:52.908Z,100376.38
2022-08-14T21:40:00.309Z,100368.13
2022-08-14T21:43:06.061Z,100367.28
2022-08-14T21:46:23.531Z,100365.66
2022-08-14T21:49:34.121Z,100365.94
2022-08-14T21:52:49.890Z,100356.84
2022-08-14T21:56:11.570Z,100355.72
2022-08-14T21:59:22.393Z,100350.22
2022-08-14T22:02:32.698Z,100359.72
2022-08-14T22:05:39.028Z,100346.78
2022-08-14T22:08:46.552Z,100356.78
2022-08-14T22:11:58.786Z,100358.47
2022-08-14T22:15:07.335Z,100361.59
2022-08-14T22:18:20.398Z,100346.44
2022-08-14T22:21:26.971Z,100353.94
2022-08-14T22:24:37.997Z,100355.69
2022-08-14T22:27:56.401Z,100355.16
2022-08-14T22:31:10.137Z,100349.94
2022-08-14T22:34:16.372Z,100346.66
2022-08-14T22:37:25.094Z,100340.03
2022-08-14T22:40:57.611Z,100330.69
2022-08-14T22:44:01.872Z,100339.00
2022-08-14T22:47:08.391Z,100328.50
2022-08-14T22:50:30.757Z,100334.06
2022-08-14T22:53:38.899Z,100331.88
2022-08-14T22:56:46.424Z,100329.19
2022-08-14T22:59:52.327Z,100322.53
2022-08-14T23:03:01.823Z,100321.19
2022-08-14T23:07:04.376Z,100318.44
2022-08-14T23:09:38.602Z,100325.53
2022-08-14T23:12:54.745Z,100323.31
2022-08-14T23:16:01.117Z,100317.75
2022-08-14T23:19:11.148Z,100311.38
2022-08-14T23:22:17.756Z,100309.41
2022-08-14T23:25:57.462Z,100313.59
2022-08-14T23:28:58.506Z,100311.41
2022-08-14T23:32:05.252Z,100311.16
2022-08-14T23:35:26.986Z,100300.63
2022-08-14T23:38:34.518Z,100294.00
2022-08-14T23:41:52.112Z,100295.34
2022-08-14T23:45:00.157Z,100294.22
2022-08-14T23:48:09.927Z,100295.81
2022-08-14T23:51:19.994Z,100284.16
2022-08-14T23:54:48.594Z,100286.31
2022-08-14T23:57:57.473Z,100282.38
